createdAt,value
2018-04-29T00:00:15.985Z,14.58
2018-04-29T00:02:44.114Z,14.57
2018-04-29T00:05:12.245Z,14.51
2018-04-29T00:07:40.386Z,14.47
2018-04-29T00:10:08.514Z,14.44
2018-04-29T00:12:36.652Z,14.44
2018-04-29T00:15:04.778Z,14.35
2018-04-29T00:17:32.896Z,14.31
2018-04-29T00:20:01.019Z,14.22
2018-04-29T00:22:29.142Z,14.15
2018-04-29T00:24:57.256Z,14.17
2018-04-29T00:27:25.382Z,14.11
2018-04-29T00:29:53.520Z,13.97
2018-04-29T00:32:21.660Z,14.07
2018-04-29T00:34:49.767Z,14.07
2018-04-29T00:37:17.879Z,14.00
2018-04-29T00:39:46.027Z,13.90
2018-04-29T00:42:14.140Z,13.88
2018-04-29T00:44:42.244Z,13.86
2018-04-29T00:47:10.401Z,13.72
2018-04-29T00:49:38.507Z,13.73
2018-04-29T00:52:06.639Z,13.71
2018-04-29T00:54:34.802Z,13.71
2018-04-29T00:57:02.918Z,13.70
2018-04-29T00:59:31.028Z,13.67
2018-04-29T01:01:59.159Z,13.57
2018-04-29T01:04:27.272Z,13.53
2018-04-29T01:06:55.469Z,13.49
2018-04-29T01:09:23.699Z,13.40
2018-04-29T01:11:51.901Z,13.47
2018-04-29T01:14:20.095Z,13.40
2018-04-29T01:16:48.261Z,13.38
2018-04-29T01:19:16.386Z,13.39
2018-04-29T01:21:45.315Z,13.41
2018-04-29T01:24:13.746Z,13.34
2018-04-29T01:26:41.870Z,13.24
2018-04-29T01:29:09.980Z,13.24
2018-04-29T01:31:38.137Z,13.26
2018-04-29T01:34:06.276Z,13.21
2018-04-29T01:36:34.472Z,13.18
2018-04-29T01:39:02.609Z,13.16
2018-04-29T01:41:30.795Z,13.08
2018-04-29T01:43:58.908Z,13.09
2018-04-29T01:46:27.038Z,12.99
2018-04-29T01:48:55.159Z,12.89
2018-04-29T01:51:23.285Z,12.91
2018-04-29T01:53:51.616Z,12.90
2018-04-29T01:56:19.720Z,12.88
2018-04-29T01:58:47.866Z,12.78
2018-04-29T02:01:15.994Z,12.78
2018-04-29T02:03:44.100Z,12.71
2018-04-29T02:06:12.212Z,12.72
2018-04-29T02:08:40.753Z,12.66
2018-04-29T02:11:08.878Z,12.74
2018-04-29T02:13:37.004Z,12.74
2018-04-29T02:16:05.130Z,12.53
2018-04-29T02:18:33.250Z,12.50
2018-04-29T02:21:01.388Z,12.57
2018-04-29T02:23:29.583Z,12.54
2018-04-29T02:25:57.725Z,12.48
2018-04-29T02:28:25.837Z,12.50
2018-04-29T02:30:53.973Z,12.50
2018-04-29T02:33:22.098Z,12.46
2018-04-29T02:35:50.259Z,12.51
2018-04-29T02:38:18.379Z,12.50
2018-04-29T02:40:46.566Z,12.46
2018-04-29T02:43:14.625Z,12.42
2018-04-29T02:45:42.778Z,12.34
2018-04-29T02:48:10.906Z,12.25
2018-04-29T02:50:39.029Z,12.19
2018-04-29T02:53:07.144Z,12.31
2018-04-29T02:55:35.275Z,12.39
2018-04-29T02:58:03.400Z,12.38
2018-04-29T03:00:31.528Z,12.40
2018-04-29T03:02:59.647Z,12.25
2018-04-29T03:05:27.774Z,12.16
2018-04-29T03:07:55.891Z,12.06
2018-04-29T03:10:24.014Z,11.77
2018-04-29T03:12:52.134Z,11.94
2018-04-29T03:15:20.265Z,12.00
2018-04-29T03:17:48.365Z,11.98
2018-04-29T03:20:16.508Z,11.97
2018-04-29T03:22:44.639Z,12.00
2018-04-29T03:25:12.770Z,11.96
2018-04-29T03:27:40.905Z,11.93
2018-04-29T03:30:09.044Z,11.91
2018-04-29T03:32:37.177Z,11.86
2018-04-29T03:35:05.321Z,11.95
2018-04-29T03:37:33.440Z,11.94
2018-04-29T03:40:01.581Z,11.96
2018-04-29T03:42:29.694Z,11.88
2018-04-29T03:44:57.857Z,11.93
2018-04-29T03:47:25.991Z,11.88
2018-04-29T03:49:54.106Z,11.93
2018-04-29T03:52:22.235Z,11.88
2018-04-29T03:54:50.364Z,11.76
2018-04-29T03:57:30.440Z,11.73
2018-04-29T04:00:10.263Z,11.88
2018-04-29T04:02:50.201Z,11.88
2018-04-29T04:05:18.256Z,11.85
2018-04-29T04:07:46.378Z,11.82
2018-04-29T04:10:14.505Z,11.76
2018-04-29T04:12:42.609Z,11.72
2018-04-29T04:15:11.060Z,11.76
2018-04-29T04:17:39.208Z,11.73
2018-04-29T04:20:07.316Z,11.77
2018-04-29T04:22:35.442Z,11.66
2018-04-29T04:25:03.587Z,11.67
2018-04-29T04:27:31.707Z,11.74
2018-04-29T04:29:59.820Z,11.79
2018-04-29T04:32:27.950Z,11.83
2018-04-29T04:34:56.055Z,11.78
2018-04-29T04:37:24.163Z,11.71
2018-04-29T04:39:52.287Z,11.70
2018-04-29T04:42:20.413Z,11.73
2018-04-29T04:44:48.530Z,11.70
2018-04-29T04:47:16.680Z,11.78
2018-04-29T04:49:44.801Z,11.78
2018-04-29T04:52:12.962Z,11.79
2018-04-29T04:54:41.087Z,11.85
2018-04-29T04:57:09.211Z,11.90
2018-04-29T04:59:37.351Z,11.97
2018-04-29T05:02:05.505Z,11.98
2018-04-29T05:04:33.619Z,12.06
2018-04-29T05:07:01.886Z,12.15
2018-04-29T05:09:30.214Z,12.19
2018-04-29T05:11:58.319Z,12.28
2018-04-29T05:14:26.434Z,12.35
2018-04-29T05:16:54.589Z,12.42
2018-04-29T05:19:22.736Z,12.38
2018-04-29T05:21:58.109Z,12.35
2018-04-29T05:24:26.230Z,12.33
2018-04-29T05:26:54.385Z,12.35
2018-04-29T05:29:22.510Z,12.26
2018-04-29T05:31:50.630Z,12.42
2018-04-29T05:34:18.750Z,12.50
2018-04-29T05:36:46.882Z,12.49
2018-04-29T05:39:14.990Z,12.52
2018-04-29T05:41:43.115Z,12.64
2018-04-29T05:44:11.268Z,12.63
2018-04-29T05:46:39.371Z,12.70
2018-04-29T05:49:07.484Z,12.76
2018-04-29T05:51:35.603Z,12.74
2018-04-29T05:54:03.731Z,12.82
2018-04-29T05:56:31.847Z,12.92
2018-04-29T05:58:59.993Z,12.93
2018-04-29T06:01:28.099Z,12.96
2018-04-29T06:03:56.227Z,13.02
2018-04-29T06:06:24.418Z,13.18
2018-04-29T06:08:52.498Z,13.28
2018-04-29T06:11:20.610Z,13.37
2018-04-29T06:13:48.760Z,13.47
2018-04-29T06:16:16.930Z,13.59
2018-04-29T06:18:45.095Z,13.65
2018-04-29T06:21:14.094Z,13.68
2018-04-29T06:23:42.221Z,13.68
2018-04-29T06:26:10.442Z,13.70
2018-04-29T06:28:38.498Z,13.83
2018-04-29T06:31:06.625Z,13.88
2018-04-29T06:33:34.751Z,13.89
2018-04-29T06:36:02.904Z,13.94
2018-04-29T06:38:31.004Z,13.96
2018-04-29T06:40:59.117Z,13.90
2018-04-29T06:43:30.449Z,14.05
2018-04-29T06:46:00.460Z,14.13
2018-04-29T06:48:28.585Z,14.53
2018-04-29T06:50:56.722Z,14.19
2018-04-29T06:53:28.663Z,14.20
2018-04-29T06:55:56.709Z,14.20
2018-04-29T06:58:24.854Z,14.09
2018-04-29T07:00:53.060Z,14.17
2018-04-29T07:03:21.133Z,14.15
2018-04-29T07:05:49.270Z,14.17
2018-04-29T07:08:17.385Z,14.21
2018-04-29T07:10:45.508Z,14.23
2018-04-29T07:13:13.660Z,14.13
2018-04-29T07:15:41.801Z,14.10
2018-04-29T07:18:09.928Z,14.16
2018-04-29T07:20:38.055Z,14.13
2018-04-29T07:23:06.164Z,14.12
2018-04-29T07:25:34.279Z,14.13
2018-04-29T07:28:02.425Z,14.14
2018-04-29T07:30:30.565Z,14.15
2018-04-29T07:32:58.700Z,14.05
2018-04-29T07:35:26.837Z,13.87
2018-04-29T07:37:54.971Z,13.82
2018-04-29T07:40:23.108Z,13.97
2018-04-29T07:42:51.260Z,13.93
2018-04-29T07:45:19.387Z,13.92
2018-04-29T07:47:47.513Z,14.04
2018-04-29T07:50:15.642Z,14.16
2018-04-29T07:52:43.795Z,14.08
2018-04-29T07:55:11.934Z,14.10
2018-04-29T07:57:40.092Z,14.15
2018-04-29T08:00:11.340Z,14.14
2018-04-29T08:02:39.481Z,14.15
2018-04-29T08:05:07.618Z,14.06
2018-04-29T08:07:35.723Z,14.04
2018-04-29T08:10:03.878Z,14.23
2018-04-29T08:12:32.021Z,14.26
2018-04-29T08:15:00.147Z,14.29
2018-04-29T08:17:29.314Z,14.32
2018-04-29T08:19:57.443Z,14.30
2018-04-29T08:22:25.564Z,14.39
2018-04-29T08:24:53.708Z,14.37
2018-04-29T08:27:21.850Z,14.50
2018-04-29T08:29:49.984Z,14.53
2018-04-29T08:32:18.110Z,14.35
2018-04-29T08:34:46.239Z,14.36
2018-04-29T08:37:14.391Z,14.37
2018-04-29T08:39:42.491Z,14.43
2018-04-29T08:42:10.795Z,14.46
2018-04-29T08:44:38.926Z,14.55
2018-04-29T08:47:07.081Z,14.54
2018-04-29T08:49:35.214Z,14.44
2018-04-29T08:52:03.348Z,14.47
2018-04-29T08:54:31.626Z,14.51
2018-04-29T08:56:59.753Z,14.53
2018-04-29T08:59:27.891Z,14.37
2018-04-29T09:01:56.017Z,14.43
2018-04-29T09:04:24.308Z,14.49
2018-04-29T09:06:52.423Z,14.44
2018-04-29T09:09:20.588Z,14.40
2018-04-29T09:11:48.743Z,14.45
2018-04-29T09:14:16.877Z,14.39
2018-04-29T09:16:44.997Z,14.56
2018-04-29T09:19:13.177Z,14.86
2018-04-29T09:21:41.318Z,14.94
2018-04-29T09:24:09.455Z,15.01
2018-04-29T09:26:37.602Z,15.03
2018-04-29T09:29:05.742Z,14.85
2018-04-29T09:31:33.885Z,14.68
2018-04-29T09:34:02.041Z,14.92
2018-04-29T09:36:30.170Z,15.09
2018-04-29T09:38:58.323Z,15.22
2018-04-29T09:41:26.462Z,15.31
2018-04-29T09:43:54.581Z,15.41
2018-04-29T09:46:22.801Z,15.45
2018-04-29T09:48:51.027Z,15.56
2018-04-29T09:51:19.235Z,15.39
2018-04-29T09:53:47.423Z,15.47
2018-04-29T09:56:15.819Z,15.55
2018-04-29T09:58:43.947Z,15.57
2018-04-29T10:01:17.979Z,15.63
2018-04-29T10:03:47.741Z,15.59
2018-04-29T10:06:15.863Z,15.72
2018-04-29T10:08:43.993Z,15.76
2018-04-29T10:11:12.125Z,15.75
2018-04-29T10:13:40.248Z,15.82
2018-04-29T10:16:08.383Z,16.08
2018-04-29T10:18:36.915Z,16.05
2018-04-29T10:21:05.035Z,15.87
2018-04-29T10:23:33.192Z,15.92
2018-04-29T10:26:01.303Z,16.05
2018-04-29T10:28:29.446Z,16.04
2018-04-29T10:30:57.765Z,16.04
2018-04-29T10:33:25.905Z,16.13
2018-04-29T10:35:54.023Z,16.03
2018-04-29T10:38:22.174Z,16.03
2018-04-29T10:40:50.317Z,16.15
2018-04-29T10:43:18.438Z,16.30
2018-04-29T10:45:46.969Z,16.32
2018-04-29T10:48:15.129Z,16.46
2018-04-29T10:50:43.247Z,16.59
2018-04-29T10:53:11.595Z,16.53
2018-04-29T10:55:39.737Z,16.53
2018-04-29T10:58:07.880Z,16.50
2018-04-29T11:00:36.012Z,16.56
2018-04-29T11:03:04.139Z,16.69
2018-04-29T11:05:32.258Z,16.71
2018-04-29T11:08:00.388Z,16.73
2018-04-29T11:10:28.526Z,16.79
2018-04-29T11:12:56.627Z,16.71
2018-04-29T11:15:24.793Z,16.87
2018-04-29T11:17:52.919Z,17.03
2018-04-29T11:20:21.050Z,17.09
2018-04-29T11:22:49.198Z,17.18
2018-04-29T11:25:17.316Z,17.19
2018-04-29T11:27:45.449Z,17.23
2018-04-29T11:30:13.625Z,17.23
2018-04-29T11:32:41.743Z,17.23
2018-04-29T11:35:09.870Z,17.31
2018-04-29T11:37:38.033Z,17.44
2018-04-29T11:40:06.150Z,17.52
2018-04-29T11:42:34.300Z,17.50
2018-04-29T11:45:02.638Z,17.47
2018-04-29T11:47:30.785Z,17.52
2018-04-29T11:49:58.902Z,17.60
2018-04-29T11:52:27.258Z,17.80
2018-04-29T11:54:55.401Z,17.96
2018-04-29T11:57:23.523Z,18.23
2018-04-29T11:59:51.683Z,18.45
2018-04-29T12:02:19.803Z,18.49
2018-04-29T12:04:47.926Z,18.56
2018-04-29T12:07:16.085Z,18.61
2018-04-29T12:09:44.192Z,18.75
2018-04-29T12:12:12.410Z,18.82
2018-04-29T12:14:40.485Z,19.05
2018-04-29T12:17:08.607Z,19.06
2018-04-29T12:19:36.730Z,19.03
2018-04-29T12:22:04.878Z,19.29
2018-04-29T12:24:33.133Z,19.30
2018-04-29T12:27:01.109Z,19.29
2018-04-29T12:29:29.273Z,19.05
2018-04-29T12:31:57.413Z,18.94
2018-04-29T12:34:25.531Z,19.07
2018-04-29T12:36:53.688Z,19.40
2018-04-29T12:39:21.797Z,19.66
2018-04-29T12:41:49.922Z,19.61
2018-04-29T12:44:18.078Z,19.82
2018-04-29T12:46:46.262Z,19.91
2018-04-29T12:49:14.335Z,19.59
2018-04-29T12:51:42.485Z,19.44
2018-04-29T12:54:10.690Z,19.60
2018-04-29T12:56:38.785Z,19.68
2018-04-29T12:59:06.922Z,19.77
2018-04-29T13:01:35.043Z,19.77
2018-04-29T13:04:03.163Z,19.82
2018-04-29T13:06:31.308Z,19.87
2018-04-29T13:08:59.415Z,19.90
2018-04-29T13:11:30.493Z,19.94
2018-04-29T13:13:58.621Z,19.85
2018-04-29T13:16:26.742Z,20.03
2018-04-29T13:18:54.873Z,20.25
2018-04-29T13:21:23.014Z,20.12
2018-04-29T13:23:51.153Z,20.05
2018-04-29T13:26:19.260Z,20.01
2018-04-29T13:28:47.478Z,19.95
2018-04-29T13:31:15.535Z,19.94
2018-04-29T13:33:43.640Z,19.91
2018-04-29T13:36:11.782Z,19.99
2018-04-29T13:38:39.889Z,20.22
2018-04-29T13:41:08.000Z,20.43
2018-04-29T13:43:36.323Z,20.71
2018-04-29T13:46:04.452Z,20.76
2018-04-29T13:48:32.570Z,20.83
2018-04-29T13:51:00.723Z,20.84
2018-04-29T13:53:28.998Z,20.78
2018-04-29T13:55:57.122Z,20.82
2018-04-29T13:58:25.262Z,20.86
2018-04-29T14:00:53.448Z,20.88
2018-04-29T14:03:21.597Z,20.80
2018-04-29T14:05:49.634Z,20.66
2018-04-29T14:08:17.805Z,20.91
2018-04-29T14:10:46.008Z,20.95
2018-04-29T14:13:14.191Z,20.93
2018-04-29T14:15:42.345Z,21.02
2018-04-29T14:18:10.449Z,20.97
2018-04-29T14:20:38.568Z,20.97
2018-04-29T14:23:06.698Z,20.89
2018-04-29T14:25:34.807Z,21.09
2018-04-29T14:28:03.082Z,21.21
2018-04-29T14:30:31.213Z,21.28
2018-04-29T14:32:59.326Z,21.25
2018-04-29T14:35:27.460Z,21.39
2018-04-29T14:37:55.564Z,21.55
2018-04-29T14:40:23.667Z,21.74
2018-04-29T14:42:51.802Z,21.78
2018-04-29T14:45:19.915Z,21.69
2018-04-29T14:47:48.048Z,21.68
2018-04-29T14:50:16.192Z,21.65
2018-04-29T14:52:44.320Z,21.61
2018-04-29T14:55:12.443Z,21.68
2018-04-29T14:57:40.565Z,21.54
2018-04-29T15:00:08.691Z,21.48
2018-04-29T15:02:36.828Z,21.50
2018-04-29T15:05:04.954Z,21.55
2018-04-29T15:07:33.089Z,21.45
2018-04-29T15:10:01.185Z,21.54
2018-04-29T15:12:29.318Z,21.52
2018-04-29T15:14:57.430Z,21.46
2018-04-29T15:17:25.528Z,21.43
2018-04-29T15:19:53.643Z,21.39
2018-04-29T15:22:21.783Z,21.42
2018-04-29T15:24:49.979Z,21.39
2018-04-29T15:27:18.007Z,21.40
2018-04-29T15:29:46.133Z,21.32
2018-04-29T15:32:15.163Z,21.20
2018-04-29T15:34:43.304Z,21.22
2018-04-29T15:37:11.439Z,21.37
2018-04-29T15:39:39.540Z,21.60
2018-04-29T15:42:07.681Z,21.55
2018-04-29T15:44:35.801Z,21.51
2018-04-29T15:47:03.900Z,21.39
2018-04-29T15:49:32.055Z,21.34
2018-04-29T15:52:00.154Z,21.28
2018-04-29T15:54:28.283Z,21.27
2018-04-29T15:56:56.400Z,21.20
2018-04-29T15:59:24.533Z,21.08
2018-04-29T16:01:52.669Z,20.97
2018-04-29T16:04:20.783Z,20.87
2018-04-29T16:06:48.963Z,20.78
2018-04-29T16:09:17.096Z,20.78
2018-04-29T16:11:45.227Z,20.85
2018-04-29T16:14:13.360Z,20.89
2018-04-29T16:16:41.461Z,20.91
2018-04-29T16:19:09.587Z,20.88
2018-04-29T16:21:37.710Z,20.85
2018-04-29T16:24:05.826Z,20.82
2018-04-29T16:26:33.959Z,20.76
2018-04-29T16:29:02.092Z,20.69
2018-04-29T16:31:30.221Z,20.61
2018-04-29T16:33:58.375Z,20.57
2018-04-29T16:36:26.525Z,20.55
2018-04-29T16:38:54.619Z,20.56
2018-04-29T16:41:22.823Z,20.54
2018-04-29T16:43:51.230Z,20.51
2018-04-29T16:46:20.199Z,20.48
2018-04-29T16:48:48.355Z,20.40
2018-04-29T16:51:16.490Z,20.34
2018-04-29T16:53:44.620Z,20.35
2018-04-29T16:56:12.744Z,20.34
2018-04-29T16:58:40.867Z,20.25
2018-04-29T17:01:09.049Z,20.23
2018-04-29T17:03:37.135Z,20.20
2018-04-29T17:06:05.263Z,20.19
2018-04-29T17:08:33.397Z,20.21
2018-04-29T17:11:01.514Z,20.25
2018-04-29T17:13:29.620Z,20.25
2018-04-29T17:15:57.765Z,20.23
2018-04-29T17:18:25.928Z,20.25
2018-04-29T17:20:54.148Z,20.23
2018-04-29T17:23:22.332Z,20.16
2018-04-29T17:25:50.466Z,20.10
2018-04-29T17:28:18.653Z,20.05
2018-04-29T17:30:46.939Z,20.04
2018-04-29T17:33:15.121Z,20.02
2018-04-29T17:35:43.365Z,19.99
2018-04-29T17:38:11.576Z,19.94
2018-04-29T17:40:39.640Z,19.86
2018-04-29T17:43:07.758Z,19.82
2018-04-29T17:45:35.856Z,19.83
2018-04-29T17:48:04.003Z,19.76
2018-04-29T17:50:32.132Z,19.72
2018-04-29T17:53:00.257Z,19.63
2018-04-29T17:55:28.410Z,19.54
2018-04-29T17:57:56.622Z,19.57
2018-04-29T18:00:24.743Z,19.60
2018-04-29T18:02:52.886Z,19.57
2018-04-29T18:05:21.038Z,19.51
2018-04-29T18:07:49.179Z,19.45
2018-04-29T18:10:17.321Z,19.40
2018-04-29T18:12:45.463Z,19.38
2018-04-29T18:15:13.725Z,19.35
2018-04-29T18:17:41.871Z,19.32
2018-04-29T18:20:10.012Z,19.28
2018-04-29T18:22:38.115Z,19.25
2018-04-29T18:25:06.530Z,19.22
2018-04-29T18:27:34.698Z,19.21
2018-04-29T18:30:02.783Z,19.18
2018-04-29T18:32:30.900Z,19.12
2018-04-29T18:34:59.027Z,19.08
2018-04-29T18:37:27.150Z,19.05
2018-04-29T18:39:55.282Z,19.00
2018-04-29T18:42:23.392Z,18.97
2018-04-29T18:44:51.534Z,18.90
2018-04-29T18:47:19.670Z,18.86
2018-04-29T18:49:47.797Z,18.83
2018-04-29T18:52:15.932Z,18.80
2018-04-29T18:54:44.079Z,18.76
2018-04-29T18:57:12.213Z,18.72
2018-04-29T18:59:40.312Z,18.68
2018-04-29T19:02:08.508Z,18.63
2018-04-29T19:04:36.626Z,18.60
2018-04-29T19:07:04.744Z,18.51
2018-04-29T19:09:33.279Z,18.56
2018-04-29T19:12:01.418Z,18.59
2018-04-29T19:14:29.520Z,18.57
2018-04-29T19:16:57.857Z,18.51
2018-04-29T19:19:25.982Z,18.49
2018-04-29T19:21:54.127Z,18.50
2018-04-29T19:24:22.258Z,18.45
2018-04-29T19:26:50.375Z,18.71
2018-04-29T19:29:18.523Z,18.66
2018-04-29T19:31:46.646Z,18.61
2018-04-29T19:34:14.756Z,18.59
2018-04-29T19:36:42.896Z,18.67
2018-04-29T19:39:11.007Z,18.71
2018-04-29T19:41:39.115Z,18.65
2018-04-29T19:44:07.224Z,18.72
2018-04-29T19:46:35.394Z,18.76
2018-04-29T19:49:03.533Z,18.71
2018-04-29T19:51:31.729Z,18.68
2018-04-29T19:53:59.921Z,18.68
2018-04-29T19:56:28.046Z,18.70
2018-04-29T19:58:59.954Z,18.75
2018-04-29T20:01:28.094Z,18.72
2018-04-29T20:03:56.231Z,18.69
2018-04-29T20:06:24.356Z,18.68
2018-04-29T20:08:52.480Z,18.79
2018-04-29T20:11:20.732Z,18.83
2018-04-29T20:13:48.857Z,18.84
2018-04-29T20:16:16.959Z,18.84
2018-04-29T20:18:45.078Z,18.79
2018-04-29T20:21:13.183Z,18.73
2018-04-29T20:23:41.306Z,18.67
2018-04-29T20:26:09.430Z,18.66
2018-04-29T20:28:37.564Z,18.62
2018-04-29T20:31:05.832Z,18.60
2018-04-29T20:33:33.959Z,18.64
2018-04-29T20:36:02.097Z,18.56
2018-04-29T20:38:30.228Z,18.56
2018-04-29T20:40:58.344Z,18.69
2018-04-29T20:43:26.467Z,18.73
2018-04-29T20:45:55.520Z,18.73
2018-04-29T20:48:23.720Z,18.61
2018-04-29T20:50:51.762Z,18.65
2018-04-29T20:53:19.914Z,18.61
2018-04-29T20:55:48.090Z,18.66
2018-04-29T20:58:16.215Z,18.63
2018-04-29T21:00:44.604Z,18.66
2018-04-29T21:03:13.099Z,18.69
2018-04-29T21:05:41.214Z,18.74
2018-04-29T21:08:09.619Z,18.72
2018-04-29T21:10:37.744Z,18.75
2018-04-29T21:13:05.858Z,18.77
2018-04-29T21:15:33.975Z,18.78
2018-04-29T21:18:03.487Z,18.75
2018-04-29T21:20:31.583Z,18.70
2018-04-29T21:22:59.745Z,18.65
2018-04-29T21:25:27.876Z,18.61
2018-04-29T21:27:56.042Z,18.56
2018-04-29T21:30:24.225Z,18.47
2018-04-29T21:32:52.357Z,18.48
2018-04-29T21:35:20.615Z,18.42
2018-04-29T21:37:48.996Z,18.38
2018-04-29T21:40:17.136Z,18.28
2018-04-29T21:42:45.259Z,18.17
2018-04-29T21:45:13.538Z,18.19
2018-04-29T21:47:41.662Z,18.13
2018-04-29T21:50:09.786Z,18.10
2018-04-29T21:52:37.930Z,18.06
2018-04-29T21:55:06.035Z,18.00
2018-04-29T21:57:34.169Z,17.92
2018-04-29T22:00:02.395Z,17.96
2018-04-29T22:02:30.484Z,17.90
2018-04-29T22:04:58.610Z,17.87
2018-04-29T22:07:26.743Z,17.81
2018-04-29T22:09:54.989Z,17.73
2018-04-29T22:12:23.091Z,17.70
2018-04-29T22:14:51.320Z,17.63
2018-04-29T22:17:19.428Z,17.56
2018-04-29T22:19:47.570Z,17.57
2018-04-29T22:22:19.266Z,17.56
2018-04-29T22:24:47.572Z,17.57
2018-04-29T22:27:15.734Z,17.52
2018-04-29T22:29:43.908Z,17.43
2018-04-29T22:32:12.077Z,17.23
2018-04-29T22:34:40.216Z,17.16
2018-04-29T22:37:08.483Z,17.18
2018-04-29T22:39:39.870Z,16.83
2018-04-29T22:42:07.998Z,16.86
2018-04-29T22:44:36.137Z,16.48
2018-04-29T22:47:04.267Z,16.49
2018-04-29T22:49:32.445Z,16.50
2018-04-29T22:52:00.578Z,16.26
2018-04-29T22:54:28.691Z,16.09
2018-04-29T22:56:56.826Z,16.35
2018-04-29T22:59:25.191Z,16.42
2018-04-29T23:01:53.348Z,16.34
2018-04-29T23:04:21.437Z,16.36
2018-04-29T23:06:49.574Z,16.63
2018-04-29T23:09:17.725Z,16.73
2018-04-29T23:11:45.867Z,16.59
2018-04-29T23:14:13.991Z,16.41
2018-04-29T23:16:42.123Z,16.29
2018-04-29T23:19:10.703Z,16.23
2018-04-29T23:21:38.869Z,16.11
2018-04-29T23:24:06.994Z,16.02
2018-04-29T23:26:35.145Z,15.86
2018-04-29T23:29:03.282Z,15.74
2018-04-29T23:31:31.426Z,15.57
2018-04-29T23:33:59.538Z,15.55
2018-04-29T23:36:28.007Z,15.71
2018-04-29T23:38:56.138Z,15.82
2018-04-29T23:41:24.269Z,15.68
2018-04-29T23:43:52.407Z,15.46
2018-04-29T23:46:20.531Z,15.48
2018-04-29T23:48:48.690Z,15.61
2018-04-29T23:51:16.824Z,15.55
2018-04-29T23:53:44.947Z,15.41
2018-04-29T23:56:13.099Z,15.43
2018-04-29T23:58:41.480Z,15.41
